Time;durP1;ratioP1;P1;durP2;ratioP2;P2;SDS_P1;SDS_P2;PMS_P1;PMS_P2;Temp;Humidity;BMP_temperature;BMP_pressure;BME280_temperature;BME280_humidity;BME280_pressure;Samples;Min_cycle;Max_cycle;Signal;HPM_P1;HPM_P2
2023/12/13 00:04:52;;;;;;;1.88;1.50;;;;;;;18.09;61.87;99262.13;20834936;28;20072;-60
2023/12/13 00:14:55;;;;;;;1.80;1.45;;;;;;;18.11;61.80;99243.94;20828406;28;20199;-60
2023/12/13 00:24:57;;;;;;;2.20;2.00;;;;;;;18.14;61.58;99233.84;20842452;28;20826;-60
2023/12/13 00:34:58;;;;;;;1.83;1.40;;;;;;;18.15;61.50;99249.00;20828260;28;20079;-60
2023/12/13 00:45:00;;;;;;;1.30;1.20;;;;;;;18.19;61.39;99251.13;20830747;28;20481;-60
2023/12/13 00:55:04;;;;;;;1.85;1.70;;;;;;;18.22;61.17;99258.84;20847248;28;20076;-60
2023/12/13 01:05:07;;;;;;;2.13;1.73;;;;;;;18.23;61.22;99262.41;20828843;28;20129;-59
2023/12/13 01:15:10;;;;;;;2.53;1.80;;;;;;;18.26;61.08;99257.47;20819524;28;20115;-60
2023/12/13 01:25:12;;;;;;;1.65;1.55;;;;;;;18.30;60.98;99265.19;20846826;28;20413;-60
2023/12/13 01:35:14;;;;;;;1.83;1.38;;;;;;;18.28;60.70;99257.31;20825216;28;20049;-60
2023/12/13 01:45:15;;;;;;;1.33;1.23;;;;;;;18.31;60.69;99267.72;20831938;28;20040;-59
2023/12/13 01:55:17;;;;;;;1.10;1.00;;;;;;;18.35;60.68;99265.53;20819688;28;20050;-60
2023/12/13 02:05:20;;;;;;;2.70;1.35;;;;;;;18.30;60.85;99267.88;20839025;28;20053;-60
2023/12/13 02:15:22;;;;;;;1.23;1.00;;;;;;;18.02;61.27;99261.16;20810263;28;20077;-60
2023/12/13 02:25:32;;;;;;;1.80;1.00;;;;;;;17.96;61.54;99251.06;20845613;28;20060;-60
2023/12/13 02:35:34;;;;;;;1.58;1.10;;;;;;;17.94;61.67;99258.47;20859007;28;20053;-59
2023/12/13 02:45:36;;;;;;;1.85;0.93;;;;;;;17.90;61.89;99251.78;20865094;28;20045;-60
2023/12/13 02:55:37;;;;;;;2.50;0.95;;;;;;;17.88;61.93;99249.25;20846934;28;20069;-60
2023/12/13 03:05:39;;;;;;;1.90;0.77;;;;;;;17.88;61.72;99253.81;20814065;28;20139;-60
2023/12/13 03:28:37;;;;;;;0.75;0.73;;;;;;;17.87;61.69;99252.13;20852171;28;20029;-60
2023/12/13 03:38:39;;;;;;;1.33;1.05;;;;;;;17.84;61.75;99234.47;20846861;28;20377;-60
2023/12/13 03:48:40;;;;;;;1.33;0.90;;;;;;;17.86;61.81;99234.31;20834372;28;20056;-60
2023/12/13 03:58:42;;;;;;;1.85;0.73;;;;;;;17.93;61.61;99235.28;20858831;28;20410;-60
2023/12/13 04:08:44;;;;;;;0.70;0.70;;;;;;;18.10;60.95;99246.81;20830164;28;20053;-60
2023/12/13 04:18:46;;;;;;;1.13;0.70;;;;;;;18.17;60.67;99236.19;20827840;28;20056;-60
2023/12/13 04:28:47;;;;;;;1.13;0.70;;;;;;;18.15;60.78;99243.59;20807527;28;20084;-59
2023/12/13 04:38:50;;;;;;;0.90;0.70;;;;;;;18.17;60.60;99236.19;20801119;28;20131;-60
2023/12/13 04:48:51;;;;;;;0.70;0.65;;;;;;;18.17;60.36;99238.88;20798857;28;20162;-60
2023/12/13 04:58:53;;;;;;;0.85;0.50;;;;;;;18.10;60.38;99231.47;20825946;28;20489;-60
2023/12/13 05:08:55;;;;;;;1.15;0.60;;;;;;;18.15;60.44;99238.22;20854466;28;20067;-60
2023/12/13 05:18:57;;;;;;;0.50;0.50;;;;;;;18.13;60.13;99235.69;20820027;28;20049;-60
2023/12/13 05:28:59;;;;;;;0.60;0.60;;;;;;;18.14;60.28;99240.06;20838366;28;20061;-60
2023/12/13 05:39:01;;;;;;;0.52;0.50;;;;;;;18.13;60.39;99241.06;20821541;28;20084;-60
2023/12/13 05:49:05;;;;;;;1.60;0.73;;;;;;;17.97;60.34;99215.91;20870780;28;20061;-61
2023/12/13 05:59:10;;;;;;;2.25;1.13;;;;;;;18.13;60.10;99242.94;20862298;28;20049;-60
2023/12/13 06:09:14;;;;;;;1.02;0.70;;;;;;;18.05;60.29;99244.66;20821495;28;20135;-60
2023/12/13 06:19:15;;;;;;;1.52;0.63;;;;;;;18.03;60.38;99256.63;20843443;28;20417;-60
2023/12/13 06:29:18;;;;;;;1.20;0.70;;;;;;;18.00;60.47;99260.47;20863225;28;20053;-60
2023/12/13 06:39:20;;;;;;;0.70;0.60;;;;;;;17.96;60.55;99269.91;20864442;28;20048;-60
2023/12/13 06:49:23;;;;;;;1.35;0.70;;;;;;;17.94;60.46;99277.34;20854227;28;20103;-60
2023/12/13 06:59:25;;;;;;;0.65;0.60;;;;;;;17.94;60.55;99280.03;20815401;28;20041;-60
2023/12/13 07:09:27;;;;;;;0.68;0.65;;;;;;;17.90;60.63;99278.69;20827748;28;20059;-61
2023/12/13 07:19:29;;;;;;;1.50;0.70;;;;;;;17.93;60.85;99286.44;20826874;28;20073;-60
2023/12/13 07:29:33;;;;;;;2.45;0.75;;;;;;;17.75;61.84;99270.53;20828511;28;20052;-61
2023/12/13 07:39:36;;;;;;;1.30;0.80;;;;;;;17.90;62.53;99311.00;20844295;28;20098;-60
2023/12/13 07:49:38;;;;;;;1.60;0.70;;;;;;;17.92;63.42;99309.84;20839970;28;20049;-60
2023/12/13 07:59:40;;;;;;;2.38;0.80;;;;;;;17.96;63.79;99321.06;20812364;28;20056;-66
2023/12/13 08:09:43;;;;;;;1.38;0.75;;;;;;;18.14;63.35;99328.94;20811735;28;20053;-66
2023/12/13 08:19:44;;;;;;;1.60;0.68;;;;;;;18.37;62.98;99333.53;20813301;28;20582;-66
2023/12/13 08:29:46;;;;;;;2.03;0.73;;;;;;;18.53;62.31;99343.34;20801310;28;20059;-66
2023/12/13 08:39:49;;;;;;;0.93;0.82;;;;;;;18.64;61.81;99353.72;20819833;28;20053;-65
2023/12/13 08:49:51;;;;;;;1.13;0.80;;;;;;;18.66;61.31;99362.47;20792376;28;20477;-66
2023/12/13 08:59:53;;;;;;;1.25;1.10;;;;;;;18.69;61.08;99363.97;20790612;28;20049;-66
2023/12/13 09:10:08;;;;;;;1.67;0.98;;;;;;;18.73;60.41;99369.84;20790489;28;20055;-66
2023/12/13 09:20:14;;;;;;;2.33;0.90;;;;;;;18.75;60.13;99378.59;20798411;28;20049;-66
2023/12/13 09:30:16;;;;;;;1.88;0.90;;;;;;;18.76;60.00;99391.06;20807751;28;20041;-66
2023/12/13 09:40:19;;;;;;;1.83;0.80;;;;;;;18.75;59.82;99394.75;20855758;28;20056;-67
2023/12/13 09:50:22;;;;;;;0.93;0.65;;;;;;;18.76;59.96;99409.91;20829677;28;20161;-66
2023/12/13 10:00:25;;;;;;;1.00;0.80;;;;;;;18.83;60.06;99410.88;20838664;28;20068;-65
2023/12/13 10:10:31;;;;;;;1.33;0.73;;;;;;;18.87;59.82;99422.97;20803991;28;20057;-66
2023/12/13 10:20:34;;;;;;;1.27;0.88;;;;;;;18.87;59.82;99430.25;20829405;28;20072;-66
2023/12/13 10:30:38;;;;;;;;;;;;;;;18.89;59.51;99436.31;20837678;28;20056;-66
2023/12/13 10:40:43;;;;;;;3.42;1.20;;;;;;;18.83;59.73;99437.84;20831219;28;20410;-66
2023/12/13 10:50:45;;;;;;;;;;;;;;;18.86;59.51;99445.56;20820749;28;20061;-66
2023/12/13 11:00:48;;;;;;;1.75;1.05;;;;;;;18.85;59.86;99454.69;20845704;28;19967;-67
2023/12/13 11:11:00;;;;;;;1.45;1.00;;;;;;;18.88;59.83;99459.72;20821593;28;21007;-66
2023/12/13 11:21:05;;;;;;;2.38;1.40;;;;;;;18.90;59.71;99465.78;20814050;28;20060;-66
2023/12/13 11:31:10;;;;;;;2.22;1.02;;;;;;;18.91;59.69;99480.94;20823055;28;20052;-66
2023/12/13 11:41:15;;;;;;;1.52;0.98;;;;;;;18.95;59.43;99482.25;20825374;28;20060;-66
2023/12/13 11:51:18;;;;;;;1.83;1.23;;;;;;;18.96;59.36;99491.19;20817922;28;20490;-67
2023/12/13 12:01:20;;;;;;;2.15;1.52;;;;;;;18.99;59.95;99494.38;20823827;28;20057;-67
2023/12/13 12:11:23;;;;;;;1.95;1.00;;;;;;;19.08;60.16;99502.47;20835738;28;20051;-67
2023/12/13 12:21:27;;;;;;;1.95;1.15;;;;;;;19.06;59.64;99515.28;20804786;28;20110;-66
2023/12/13 12:31:30;;;;;;;2.00;1.20;;;;;;;19.01;59.62;99512.28;20816760;28;20053;-67
2023/12/13 12:41:34;;;;;;;2.40;1.15;;;;;;;19.13;59.74;99522.47;20799296;28;20060;-67
2023/12/13 12:51:36;;;;;;;1.48;1.15;;;;;;;19.19;60.05;99526.31;20828868;28;20132;-66
2023/12/13 13:01:38;;;;;;;2.33;1.25;;;;;;;19.31;60.31;99534.00;20817706;28;20063;-67
2023/12/13 13:11:42;;;;;;;2.45;1.33;;;;;;;19.35;60.20;99541.56;20802357;28;20819;-66
2023/12/13 13:21:44;;;;;;;1.60;1.30;;;;;;;19.39;60.36;99536.63;20818680;28;20053;-68
2023/12/13 13:31:46;;;;;;;1.92;1.42;;;;;;;19.45;60.50;99549.44;20785361;28;20084;-67
2023/12/13 13:41:47;;;;;;;2.88;1.27;;;;;;;19.50;60.61;99556.97;20809199;28;20080;-67
2023/12/13 13:51:49;;;;;;;1.33;1.23;;;;;;;19.55;60.65;99577.03;20826530;28;20140;-68
2023/12/13 14:01:51;;;;;;;1.70;1.20;;;;;;;19.58;60.56;99577.69;20822195;28;20049;-68
2023/12/13 14:11:53;;;;;;;1.60;1.33;;;;;;;19.54;60.67;99594.22;20840712;28;20126;-68
2023/12/13 14:21:59;;;;;;;2.05;1.38;;;;;;;19.51;60.87;99605.38;20793468;28;20049;-67
2023/12/13 14:32:01;;;;;;;2.67;1.48;;;;;;;19.46;61.15;99607.78;20803396;28;20052;-70
2023/12/13 14:42:03;;;;;;;1.92;1.30;;;;;;;19.48;61.37;99621.09;20811079;28;20045;-67
2023/12/13 14:52:04;;;;;;;3.25;1.80;;;;;;;19.47;61.43;99647.25;20832693;28;20073;-67
2023/12/13 15:02:07;;;;;;;2.33;1.45;;;;;;;19.47;60.94;99671.53;20813677;28;20049;-67
2023/12/13 15:12:10;;;;;;;3.92;1.10;;;;;;;19.45;60.58;99689.78;20814002;28;20055;-66
2023/12/13 15:22:12;;;;;;;1.42;0.88;;;;;;;19.40;60.58;99716.44;20824351;28;20337;-67
2023/12/13 15:32:14;;;;;;;1.90;0.82;;;;;;;19.37;60.57;99735.66;20811108;28;20079;-71
2023/12/13 15:42:15;;;;;;;1.52;0.93;;;;;;;19.26;61.22;99732.34;20817339;28;20057;-69
2023/12/13 15:52:17;;;;;;;2.80;0.80;;;;;;;19.36;61.39;99763.66;20841492;28;20107;-66
2023/12/13 16:02:19;;;;;;;2.60;0.75;;;;;;;19.27;62.17;99777.19;20804950;28;20083;-65
2023/12/13 16:12:21;;;;;;;1.65;0.70;;;;;;;19.20;66.97;99797.78;20795365;28;20046;-62
2023/12/13 16:22:23;;;;;;;6.20;3.08;;;;;;;19.17;68.82;99811.63;20792930;28;20523;-63
2023/12/13 16:32:25;;;;;;;7.15;1.70;;;;;;;19.15;68.86;99832.53;20777714;28;20049;-65
2023/12/13 16:42:27;;;;;;;3.28;1.10;;;;;;;19.11;67.44;99836.59;20781724;28;20049;-65
2023/12/13 16:52:29;;;;;;;2.35;0.90;;;;;;;18.96;67.96;99848.03;20764430;28;20053;-67
2023/12/13 17:02:31;;;;;;;1.10;0.57;;;;;;;18.89;67.21;99884.75;20771104;28;20053;-65
2023/12/13 17:12:46;;;;;;;1.17;0.80;;;;;;;18.81;67.22;99901.81;20772972;28;20080;-65
2023/12/13 17:22:47;;;;;;;0.75;0.60;;;;;;;18.95;66.07;99924.56;20760039;28;20106;-70
2023/12/13 17:32:49;;;;;;;0.73;0.70;;;;;;;19.02;65.81;99949.03;20782431;28;20140;-65
2023/12/13 17:42:51;;;;;;;1.45;1.00;;;;;;;18.83;66.99;99977.13;20837102;28;20053;-66
2023/12/13 17:52:53;;;;;;;1.15;0.98;;;;;;;18.77;66.51;99996.66;20840362;28;20055;-67
2023/12/13 18:02:56;;;;;;;1.50;0.85;;;;;;;18.72;65.78;100020.59;20845390;28;20052;-66
2023/12/13 18:12:58;;;;;;;1.42;0.95;;;;;;;18.56;65.46;100035.69;20830765;28;20045;-66
2023/12/13 18:23:00;;;;;;;1.52;0.77;;;;;;;18.54;64.95;100067.31;20829261;28;20638;-65
2023/12/13 18:33:02;;;;;;;1.55;0.75;;;;;;;18.46;64.37;100080.75;20840954;28;20086;-66
2023/12/13 18:43:04;;;;;;;0.50;0.50;;;;;;;18.34;63.88;100083.75;20860531;28;20059;-66
2023/12/13 18:53:07;;;;;;;0.82;0.60;;;;;;;18.23;63.32;100105.56;20862408;28;20107;-66
2023/12/13 19:03:09;;;;;;;0.88;0.60;;;;;;;18.13;63.09;100121.81;20841085;28;20060;-66
2023/12/13 19:13:11;;;;;;;1.00;0.80;;;;;;;18.05;62.66;100149.53;20835922;28;20055;-65
2023/12/13 19:23:13;;;;;;;1.30;0.85;;;;;;;17.98;62.32;100160.06;20824696;28;20049;-66
2023/12/13 19:33:15;;;;;;;1.35;0.80;;;;;;;17.91;61.93;100195.84;20844108;28;20059;-66
2023/12/13 19:43:16;;;;;;;1.08;0.90;;;;;;;17.79;61.44;100214.91;20827536;28;20503;-66
2023/12/13 19:53:18;;;;;;;0.80;0.80;;;;;;;17.71;61.06;100233.69;20823348;28;20048;-66
2023/12/13 20:03:20;;;;;;;0.82;0.80;;;;;;;17.67;60.79;100246.59;20812319;28;20049;-66
2023/12/13 20:13:22;;;;;;;1.08;0.70;;;;;;;17.68;60.55;100252.81;20851995;28;20055;-66
2023/12/13 20:23:24;;;;;;;0.60;0.60;;;;;;;17.66;60.24;100271.81;20839413;28;20515;-65
2023/12/13 20:33:25;;;;;;;1.63;0.90;;;;;;;17.62;59.99;100289.25;20852411;28;20045;-65
2023/12/13 20:43:27;;;;;;;5.82;2.88;;;;;;;17.60;60.32;100295.78;20830604;28;20512;-66
2023/12/13 20:53:29;;;;;;;2.40;1.55;;;;;;;17.52;63.30;100312.69;20832410;28;20049;-65
2023/12/13 21:03:31;;;;;;;3.25;1.55;;;;;;;17.53;63.47;100331.34;20849018;28;20052;-66
2023/12/13 21:13:33;;;;;;;1.60;1.20;;;;;;;17.54;63.19;100351.91;20842381;28;20049;-66
2023/12/13 21:23:35;;;;;;;1.33;0.98;;;;;;;17.54;62.79;100373.44;20864788;28;20053;-65
2023/12/13 21:33:37;;;;;;;1.50;0.90;;;;;;;17.54;62.15;100381.50;20866786;28;20501;-66
2023/12/13 21:43:40;;;;;;;1.13;0.90;;;;;;;17.50;61.93;100393.56;20845686;28;20049;-66
2023/12/13 21:53:48;;;;;;;1.02;0.82;;;;;;;17.50;61.55;100404.31;20858949;28;20049;-66
2023/12/13 22:03:51;;;;;;;1.08;0.80;;;;;;;17.46;60.92;100423.63;20866436;28;20432;-66
2023/12/13 22:13:53;;;;;;;0.88;0.88;;;;;;;17.43;60.47;100457.03;20860656;28;20135;-65
2023/12/13 22:23:55;;;;;;;1.10;1.00;;;;;;;17.35;60.19;100478.44;20837886;28;20046;-65
2023/12/13 22:33:57;;;;;;;1.08;0.98;;;;;;;17.28;60.16;100502.34;20852230;28;20052;-66
2023/12/13 22:44:02;;;;;;;1.02;0.90;;;;;;;17.27;59.99;100499.81;20829934;28;20059;-65
2023/12/13 22:54:03;;;;;;;1.47;0.93;;;;;;;17.27;59.63;100489.91;20858048;28;20052;-65
2023/12/13 23:04:05;;;;;;;1.10;0.80;;;;;;;17.38;59.32;100510.44;20828421;28;20045;-65
2023/12/13 23:14:10;;;;;;;;;;;;;;;17.44;58.77;100539.47;20849048;28;20064;-65
2023/12/13 23:24:12;;;;;;;1.30;1.00;;;;;;;17.37;58.43;100565.25;20847107;28;20635;-66
2023/12/13 23:34:14;;;;;;;1.02;0.98;;;;;;;17.27;58.59;100589.44;20857897;28;20052;-65
2023/12/13 23:44:16;;;;;;;0.80;0.80;;;;;;;17.21;58.46;100592.69;20859368;28;20063;-66
2023/12/13 23:54:17;;;;;;;0.93;0.80;;;;;;;17.18;58.59;100603.72;20851982;28;20053;-66
